Time;durP1;ratioP1;P1;durP2;ratioP2;P2;SDS_P1;SDS_P2;PMS_P1;PMS_P2;Temp;Humidity;BMP_temperature;BMP_pressure;BME280_temperature;BME280_humidity;BME280_pressure;Samples;Min_cycle;Max_cycle;Signal;HPM_P1;HPM_P2
2023/06/20 00:02:53;;;;;;;;;;;22.50;99.30;;;;;;6247835;28;19944;-77
2023/06/20 00:05:55;;;;;;;;;;;22.40;99.30;;;;;;6248208;28;19928;-77
2023/06/20 00:08:56;;;;;;;;;;;22.30;99.70;;;;;;6249021;28;20367;-77
2023/06/20 00:11:59;;;;;;;;;;;22.10;99.90;;;;;;6246904;28;20359;-77
2023/06/20 00:15:01;;;;;;;;;;;22.20;99.90;;;;;;6254040;28;20016;-78
2023/06/20 00:18:03;;;;;;;;;;;22.10;99.40;;;;;;6255047;28;20015;-77
2023/06/20 00:21:05;;;;;;;;;;;22.10;98.20;;;;;;6247982;28;19928;-77
2023/06/20 00:24:09;;;;;;;;;;;22.30;98.80;;;;;;6256678;28;19920;-77
2023/06/20 00:27:12;;;;;;;;;;;22.30;98.80;;;;;;6248280;28;20286;-78
2023/06/20 00:30:14;;;;;;;;;;;22.40;98.10;;;;;;6254756;28;19921;-78
2023/06/20 00:33:18;;;;;;;;;;;22.40;97.20;;;;;;6247488;28;19921;-76
2023/06/20 00:36:25;;;;;;;;;;;22.40;97.10;;;;;;6247924;28;20020;-77
2023/06/20 00:39:26;;;;;;;;;;;22.40;97.80;;;;;;6253840;28;20006;-78
2023/06/20 00:42:29;;;;;;;;;;;22.30;97.80;;;;;;6247223;28;20290;-77
2023/06/20 00:45:32;;;;;;;;;;;22.20;99.50;;;;;;6248261;28;19928;-77
2023/06/20 00:48:34;;;;;;;;;;;22.00;99.90;;;;;;6254806;28;19950;-78
2023/06/20 00:51:37;;;;;;;;;;;21.90;99.90;;;;;;6261711;28;19921;-78
2023/06/20 00:54:39;;;;;;;;;;;21.80;99.90;;;;;;6247519;28;19921;-77
2023/06/20 00:57:43;;;;;;;;;;;21.70;99.90;;;;;;6245760;28;19929;-78
2023/06/20 01:00:45;;;;;;;;;;;21.50;99.90;;;;;;6259226;28;19921;-78
2023/06/20 01:03:48;;;;;;;;;;;21.40;99.90;;;;;;6247549;28;19928;-78
2023/06/20 01:06:54;;;;;;;;;;;21.40;99.90;;;;;;6257782;28;20055;-78
2023/06/20 01:10:01;;;;;;;;;;;21.40;99.90;;;;;;6259486;28;19921;-78
2023/06/20 01:13:10;;;;;;;;;;;21.30;99.90;;;;;;6251987;28;20393;-77
2023/06/20 01:16:18;;;;;;;;;;;21.20;99.90;;;;;;6271770;28;19921;-78
2023/06/20 01:19:35;;;;;;;;;;;21.10;99.90;;;;;;6272108;28;19927;-77
2023/06/20 01:22:57;;;;;;;;;;;21.10;99.90;;;;;;6272338;28;19921;-77
2023/06/20 01:26:03;;;;;;;;;;;21.00;99.90;;;;;;6251955;28;19921;-78
2023/06/20 01:29:11;;;;;;;;;;;21.00;99.90;;;;;;6252552;28;19921;-77
2023/06/20 01:32:16;;;;;;;;;;;20.90;99.90;;;;;;6251452;28;20291;-77
2023/06/20 01:35:21;;;;;;;;;;;20.90;99.90;;;;;;6250900;28;19928;-78
2023/06/20 01:38:27;;;;;;;;;;;20.90;99.90;;;;;;6270316;28;19970;-78
2023/06/20 01:41:30;;;;;;;;;;;20.90;99.90;;;;;;6254655;28;19921;-78
2023/06/20 01:44:34;;;;;;;;;;;20.90;99.90;;;;;;6250812;28;20355;-78
2023/06/20 01:47:37;;;;;;;;;;;20.80;99.90;;;;;;6250302;28;20394;-77
2023/06/20 01:50:39;;;;;;;;;;;20.90;99.90;;;;;;6276006;28;19936;-76
2023/06/20 01:53:43;;;;;;;;;;;20.90;99.90;;;;;;6258643;28;19932;-76
2023/06/20 01:56:47;;;;;;;;;;;21.00;99.90;;;;;;6275846;28;19921;-76
2023/06/20 01:59:49;;;;;;;;;;;21.00;99.90;;;;;;6259143;28;19921;-77
2023/06/20 02:02:51;;;;;;;;;;;21.00;99.90;;;;;;6250782;28;19921;-77
2023/06/20 02:05:54;;;;;;;;;;;21.10;99.90;;;;;;6251005;28;19932;-77
2023/06/20 02:08:58;;;;;;;;;;;21.00;99.90;;;;;;6261276;28;20389;-77
2023/06/20 02:12:01;;;;;;;;;;;21.10;99.90;;;;;;6270054;28;19921;-77
2023/06/20 02:15:03;;;;;;;;;;;20.90;99.90;;;;;;6262851;28;19928;-77
2023/06/20 02:18:05;;;;;;;;;;;21.10;99.90;;;;;;6274453;28;19924;-77
2023/06/20 02:21:08;;;;;;;;;;;21.20;99.90;;;;;;6250150;28;19928;-77
2023/06/20 02:24:13;;;;;;;;;;;21.30;99.90;;;;;;6253419;28;19929;-77
2023/06/20 02:27:16;;;;;;;;;;;21.30;99.90;;;;;;6252543;28;19921;-77
2023/06/20 02:30:18;;;;;;;;;;;21.20;99.90;;;;;;6249992;28;20386;-77
2023/06/20 02:33:21;;;;;;;;;;;21.10;99.90;;;;;;6250097;28;19921;-77
2023/06/20 02:36:25;;;;;;;;;;;21.00;99.90;;;;;;6271873;28;19927;-77
2023/06/20 02:39:29;;;;;;;;;;;21.00;99.90;;;;;;6273055;28;20370;-76
2023/06/20 02:42:30;;;;;;;;;;;21.00;99.90;;;;;;6257453;28;19927;-75
2023/06/20 02:45:32;;;;;;;;;;;21.00;99.90;;;;;;6272075;28;19921;-76
2023/06/20 02:48:41;;;;;;;;;;;21.00;99.90;;;;;;6251827;28;19924;-77
2023/06/20 02:51:50;;;;;;;;;;;21.00;99.90;;;;;;6249690;28;19921;-76
2023/06/20 02:54:57;;;;;;;;;;;21.10;99.90;;;;;;6252066;28;19933;-77
2023/06/20 02:58:01;;;;;;;;;;;21.10;99.90;;;;;;6269670;28;19924;-76
2023/06/20 03:01:03;;;;;;;;;;;21.20;99.90;;;;;;6274462;28;19921;-76
2023/06/20 03:04:05;;;;;;;;;;;21.20;99.90;;;;;;6271735;28;19943;-76
2023/06/20 03:07:07;;;;;;;;;;;21.00;99.90;;;;;;6270915;28;19920;-76
2023/06/20 03:10:11;;;;;;;;;;;21.10;99.90;;;;;;6258431;28;19921;-75
2023/06/20 03:13:14;;;;;;;;;;;21.20;99.90;;;;;;6272048;28;20275;-75
2023/06/20 03:16:15;;;;;;;;;;;21.20;99.90;;;;;;6269799;28;19927;-76
2023/06/20 03:19:17;;;;;;;;;;;21.20;99.90;;;;;;6272710;28;19921;-75
2023/06/20 03:22:19;;;;;;;;;;;21.20;99.90;;;;;;6273899;28;20370;-75
2023/06/20 03:25:22;;;;;;;;;;;21.20;99.90;;;;;;6271215;28;19921;-75
2023/06/20 03:28:24;;;;;;;;;;;21.20;99.90;;;;;;6268538;28;19921;-77
2023/06/20 03:31:26;;;;;;;;;;;21.20;99.90;;;;;;6248304;28;19921;-77
2023/06/20 03:34:29;;;;;;;;;;;21.10;99.90;;;;;;6261442;28;20385;-76
2023/06/20 03:37:31;;;;;;;;;;;21.00;99.90;;;;;;6256084;28;19925;-76
2023/06/20 03:40:34;;;;;;;;;;;21.00;99.90;;;;;;6251958;28;19923;-77
2023/06/20 03:43:36;;;;;;;;;;;21.10;99.90;;;;;;6247862;28;19921;-76
2023/06/20 03:46:38;;;;;;;;;;;21.10;99.90;;;;;;6248385;28;20401;-78
2023/06/20 03:49:39;;;;;;;;;;;21.10;99.90;;;;;;6248332;28;19921;-76
2023/06/20 03:52:41;;;;;;;;;;;21.10;99.90;;;;;;6235036;28;19921;-76
2023/06/20 03:55:44;;;;;;;;;;;21.10;99.90;;;;;;6244799;28;19936;-77
2023/06/20 03:58:46;;;;;;;;;;;21.10;99.90;;;;;;6248076;28;19921;-77
2023/06/20 04:01:48;;;;;;;;;;;21.10;99.90;;;;;;6247669;28;19921;-77
2023/06/20 04:04:50;;;;;;;;;;;21.20;99.90;;;;;;6261945;28;19920;-76
2023/06/20 04:07:51;;;;;;;;;;;21.20;99.90;;;;;;6272994;28;19927;-76
2023/06/20 04:10:54;;;;;;;;;;;21.20;99.90;;;;;;6270437;28;19920;-76
2023/06/20 04:13:56;;;;;;;;;;;21.20;99.90;;;;;;6272641;28;20286;-76
2023/06/20 04:16:58;;;;;;;;;;;21.20;99.90;;;;;;6269763;28;20266;-75
2023/06/20 04:20:00;;;;;;;;;;;21.20;99.90;;;;;;6254001;28;19921;-75
2023/06/20 04:23:01;;;;;;;;;;;21.20;99.90;;;;;;6260933;28;19951;-75
2023/06/20 04:26:04;;;;;;;;;;;21.00;99.90;;;;;;6267590;28;19921;-75
2023/06/20 04:29:06;;;;;;;;;;;21.00;99.90;;;;;;6272768;28;19920;-77
2023/06/20 04:32:08;;;;;;;;;;;21.00;99.90;;;;;;6272688;28;19920;-78
2023/06/20 04:35:11;;;;;;;;;;;20.90;99.90;;;;;;6250497;28;20393;-77
2023/06/20 04:38:13;;;;;;;;;;;21.00;99.90;;;;;;6247519;28;19921;-75
2023/06/20 04:41:16;;;;;;;;;;;21.00;99.90;;;;;;6249137;28;19925;-75
2023/06/20 04:44:19;;;;;;;;;;;21.00;99.90;;;;;;6252631;28;19921;-75
2023/06/20 04:47:21;;;;;;;;;;;21.00;99.90;;;;;;6252915;28;20027;-75
2023/06/20 04:50:23;;;;;;;;;;;21.10;99.90;;;;;;6252592;28;20295;-75
2023/06/20 04:53:26;;;;;;;;;;;21.20;99.90;;;;;;6252600;28;19921;-75
2023/06/20 04:56:29;;;;;;;;;;;21.20;99.90;;;;;;6252526;28;19975;-75
2023/06/20 04:59:30;;;;;;;;;;;21.20;99.90;;;;;;6252265;28;19928;-76
2023/06/20 05:02:32;;;;;;;;;;;21.20;99.90;;;;;;6243495;28;19983;-76
2023/06/20 05:05:34;;;;;;;;;;;21.30;99.90;;;;;;6252178;28;19920;-70
2023/06/20 05:08:35;;;;;;;;;;;21.30;99.90;;;;;;6252202;28;19931;-70
2023/06/20 05:11:38;;;;;;;;;;;21.30;99.90;;;;;;6252092;28;19928;-71
2023/06/20 05:14:40;;;;;;;;;;;21.30;99.90;;;;;;6252644;28;19921;-70
2023/06/20 05:17:42;;;;;;;;;;;21.30;99.90;;;;;;6252053;28;19931;-70
2023/06/20 05:20:43;;;;;;;;;;;21.30;99.90;;;;;;6252159;28;19946;-70
2023/06/20 05:23:45;;;;;;;;;;;21.30;99.90;;;;;;6251692;28;19924;-71
2023/06/20 05:26:48;;;;;;;;;;;21.20;99.90;;;;;;6251899;28;19928;-70
2023/06/20 05:29:50;;;;;;;;;;;21.30;99.90;;;;;;6251822;28;19927;-70
2023/06/20 05:32:52;;;;;;;;;;;21.30;99.90;;;;;;6251425;28;19928;-70
2023/06/20 05:35:53;;;;;;;;;;;21.30;99.90;;;;;;6251835;28;19967;-70
2023/06/20 05:38:58;;;;;;;;;;;21.30;99.90;;;;;;6251188;28;19931;-70
2023/06/20 05:42:01;;;;;;;;;;;21.40;99.90;;;;;;6251301;28;19921;-71
2023/06/20 05:45:03;;;;;;;;;;;21.50;99.90;;;;;;6251039;28;19944;-70
2023/06/20 05:48:08;;;;;;;;;;;21.40;99.90;;;;;;6251339;28;20363;-72
2023/06/20 05:51:12;;;;;;;;;;;21.40;99.90;;;;;;6250877;28;19988;-71
2023/06/20 05:54:14;;;;;;;;;;;21.40;99.90;;;;;;6250083;28;19921;-70
2023/06/20 05:57:17;;;;;;;;;;;21.50;99.90;;;;;;6251133;28;19921;-70
2023/06/20 06:00:19;;;;;;;;;;;21.60;99.90;;;;;;6251100;28;20375;-71
2023/06/20 06:03:21;;;;;;;;;;;21.80;99.90;;;;;;6250919;28;19921;-71
2023/06/20 06:06:24;;;;;;;;;;;21.90;99.90;;;;;;6251073;28;19921;-70
2023/06/20 06:09:25;;;;;;;;;;;22.00;99.90;;;;;;6250749;28;20317;-70
2023/06/20 06:12:28;;;;;;;;;;;22.10;99.90;;;;;;6250757;28;20255;-70
2023/06/20 06:15:30;;;;;;;;;;;22.10;99.90;;;;;;6250835;28;19921;-70
2023/06/20 06:18:32;;;;;;;;;;;22.20;99.90;;;;;;6250738;28;19921;-70
2023/06/20 06:21:33;;;;;;;;;;;22.30;99.90;;;;;;6250529;28;19921;-70
2023/06/20 06:24:35;;;;;;;;;;;22.30;99.90;;;;;;6250329;28;20441;-71
2023/06/20 06:27:38;;;;;;;;;;;22.40;99.90;;;;;;6250217;28;19921;-72
2023/06/20 06:30:40;;;;;;;;;;;22.30;99.90;;;;;;6250205;28;19921;-70
2023/06/20 06:33:43;;;;;;;;;;;22.40;99.90;;;;;;6250238;28;19921;-70
2023/06/20 06:36:48;;;;;;;;;;;22.40;99.90;;;;;;6249823;28;20281;-71
2023/06/20 06:39:50;;;;;;;;;;;22.50;99.90;;;;;;6250299;28;19921;-70
2023/06/20 06:42:53;;;;;;;;;;;22.50;99.90;;;;;;6249709;28;19921;-70
2023/06/20 06:45:55;;;;;;;;;;;22.50;99.90;;;;;;6250034;28;19921;-72
2023/06/20 06:48:56;;;;;;;;;;;22.60;99.90;;;;;;6249943;28;19921;-71
2023/06/20 06:51:59;;;;;;;;;;;22.60;99.90;;;;;;6249469;28;19925;-72
2023/06/20 06:55:01;;;;;;;;;;;22.60;99.90;;;;;;6249585;28;20055;-72
2023/06/20 06:58:04;;;;;;;;;;;22.60;99.90;;;;;;6249661;28;19921;-72
2023/06/20 07:01:05;;;;;;;;;;;22.70;99.90;;;;;;6242628;28;19948;-72
2023/06/20 07:04:07;;;;;;;;;;;22.80;99.90;;;;;;6224554;28;19921;-72
2023/06/20 07:07:09;;;;;;;;;;;22.80;99.90;;;;;;6225153;28;19921;-72
2023/06/20 07:10:11;;;;;;;;;;;22.90;99.90;;;;;;6238060;28;19928;-72
2023/06/20 07:13:14;;;;;;;;;;;22.90;99.90;;;;;;6249555;28;20422;-71
2023/06/20 07:16:15;;;;;;;;;;;23.10;99.90;;;;;;6248814;28;19925;-71
2023/06/20 07:19:17;;;;;;;;;;;23.20;99.90;;;;;;6249230;28;19928;-71
2023/06/20 07:22:19;;;;;;;;;;;23.30;99.90;;;;;;6248520;28;19928;-71
2023/06/20 07:25:21;;;;;;;;;;;23.40;99.90;;;;;;6248835;28;19921;-71
2023/06/20 07:28:25;;;;;;;;;;;23.50;99.90;;;;;;6249143;28;19924;-73
2023/06/20 07:31:27;;;;;;;;;;;23.50;99.90;;;;;;6249171;28;19928;-71
2023/06/20 07:34:28;;;;;;;;;;;23.60;99.90;;;;;;6249013;28;19929;-71
2023/06/20 07:37:30;;;;;;;;;;;23.60;99.90;;;;;;6248702;28;19921;-72
2023/06/20 07:40:32;;;;;;;;;;;23.70;99.90;;;;;;6248142;28;19921;-72
2023/06/20 07:43:35;;;;;;;;;;;23.80;99.90;;;;;;6248511;28;19928;-70
2023/06/20 07:46:36;;;;;;;;;;;23.80;99.90;;;;;;6248908;28;20382;-72
2023/06/20 07:49:38;;;;;;;;;;;23.80;99.90;;;;;;6248230;28;20283;-72
2023/06/20 07:52:40;;;;;;;;;;;23.90;99.90;;;;;;6246967;28;19944;-71
2023/06/20 07:55:42;;;;;;;;;;;24.00;99.90;;;;;;6248425;28;20371;-71
2023/06/20 07:58:45;;;;;;;;;;;24.00;99.90;;;;;;6248791;28;19928;-71
2023/06/20 08:01:47;;;;;;;;;;;24.10;99.90;;;;;;6248509;28;19921;-71
2023/06/20 08:04:49;;;;;;;;;;;24.10;99.90;;;;;;6248291;28;19928;-71
2023/06/20 08:07:50;;;;;;;;;;;24.20;99.90;;;;;;6248281;28;19921;-71
2023/06/20 08:10:52;;;;;;;;;;;24.20;99.90;;;;;;6248399;28;19921;-72
2023/06/20 08:13:55;;;;;;;;;;;24.30;99.90;;;;;;6248271;28;19921;-71
2023/06/20 08:16:57;;;;;;;;;;;24.40;99.90;;;;;;6247733;28;19932;-71
2023/06/20 08:19:59;;;;;;;;;;;24.40;99.90;;;;;;6248373;28;20326;-73
2023/06/20 08:23:01;;;;;;;;;;;24.40;99.90;;;;;;6247997;28;19974;-72
2023/06/20 08:26:03;;;;;;;;;;;24.40;99.90;;;;;;6248386;28;20359;-73
2023/06/20 08:29:08;;;;;;;;;;;24.50;99.90;;;;;;6248063;28;19920;-72
2023/06/20 08:32:09;;;;;;;;;;;24.40;99.90;;;;;;6247609;28;19932;-72
2023/06/20 08:35:11;;;;;;;;;;;24.50;99.90;;;;;;6248153;28;19921;-72
2023/06/20 08:38:13;;;;;;;;;;;24.50;99.90;;;;;;6248062;28;19921;-74
2023/06/20 08:41:15;;;;;;;;;;;24.60;99.90;;;;;;6227786;28;19925;-72
2023/06/20 08:44:18;;;;;;;;;;;24.60;99.90;;;;;;6218253;28;19932;-72
2023/06/20 08:47:20;;;;;;;;;;;24.70;99.90;;;;;;6220330;28;20007;-71
2023/06/20 08:50:22;;;;;;;;;;;24.80;99.90;;;;;;6238715;28;19932;-71
2023/06/20 08:53:24;;;;;;;;;;;24.80;99.90;;;;;;6244360;28;19932;-72
2023/06/20 08:56:25;;;;;;;;;;;24.90;99.90;;;;;;6244537;28;19928;-71
2023/06/20 08:59:28;;;;;;;;;;;24.90;99.80;;;;;;6244874;28;19929;-74
2023/06/20 09:02:30;;;;;;;;;;;25.00;99.80;;;;;;6243960;28;20414;-72
2023/06/20 09:05:33;;;;;;;;;;;24.90;99.90;;;;;;6244112;28;20278;-73
2023/06/20 09:08:36;;;;;;;;;;;24.90;99.30;;;;;;6244433;28;20410;-72
2023/06/20 09:11:38;;;;;;;;;;;24.90;99.60;;;;;;6245118;28;20412;-87
2023/06/20 09:14:41;;;;;;;;;;;24.90;99.50;;;;;;6247301;28;19928;-84
2023/06/20 09:17:43;;;;;;;;;;;25.00;99.30;;;;;;6247224;28;19921;-84
2023/06/20 09:20:45;;;;;;;;;;;25.00;98.60;;;;;;6246241;28;19921;-86
2023/06/20 09:23:48;;;;;;;;;;;25.00;98.40;;;;;;6248251;28;20371;-85
2023/06/20 09:26:51;;;;;;;;;;;25.10;98.10;;;;;;6247955;28;20008;-85
2023/06/20 09:29:56;;;;;;;;;;;25.20;98.40;;;;;;6252420;28;19928;-85
2023/06/20 09:33:03;;;;;;;;;;;25.30;96.00;;;;;;6252399;28;19921;-85
2023/06/20 09:36:11;;;;;;;;;;;25.30;94.40;;;;;;6252366;28;19920;-85
2023/06/20 09:39:17;;;;;;;;;;;25.50;95.20;;;;;;6252074;28;20371;-85
2023/06/20 09:42:19;;;;;;;;;;;25.60;91.70;;;;;;6252128;28;19927;-85
2023/06/20 09:45:22;;;;;;;;;;;25.70;87.20;;;;;;6251667;28;20320;-83
2023/06/20 09:48:25;;;;;;;;;;;25.80;89.10;;;;;;6252202;28;19928;-86
2023/06/20 09:51:29;;;;;;;;;;;25.90;88.80;;;;;;6251761;28;19931;-85
2023/06/20 09:54:37;;;;;;;;;;;26.00;84.60;;;;;;6251146;28;20377;-85
2023/06/20 09:57:42;;;;;;;;;;;26.10;81.30;;;;;;6251592;28;19921;-85
2023/06/20 10:00:46;;;;;;;;;;;26.10;83.20;;;;;;6251442;28;19928;-85
2023/06/20 10:03:47;;;;;;;;;;;26.30;85.00;;;;;;6251310;28;19925;-85
2023/06/20 10:06:50;;;;;;;;;;;26.40;83.70;;;;;;6251210;28;19925;-84
2023/06/20 10:09:54;;;;;;;;;;;26.40;83.30;;;;;;6250722;28;19928;-86
2023/06/20 10:12:56;;;;;;;;;;;26.40;83.30;;;;;;6251172;28;19952;-84
2023/06/20 10:15:59;;;;;;;;;;;26.50;83.20;;;;;;6250614;28;19932;-85
2023/06/20 10:19:15;;;;;;;;;;;26.60;81.40;;;;;;6251059;28;20346;-85
2023/06/20 10:22:33;;;;;;;;;;;26.60;72.90;;;;;;6250812;28;20389;-85
2023/06/20 10:25:34;;;;;;;;;;;26.70;67.30;;;;;;6251246;28;20008;-84
2023/06/20 10:28:37;;;;;;;;;;;26.90;69.60;;;;;;6250408;28;19921;-85
2023/06/20 10:35:15;;;;;;;;;;;27.10;69.00;;;;;;6370833;27;19947;-84
2023/06/20 10:38:17;;;;;;;;;;;27.10;70.50;;;;;;6359231;28;19924;-82
2023/06/20 10:41:23;;;;;;;;;;;27.20;69.40;;;;;;6344599;28;19924;-81
2023/06/20 10:44:28;;;;;;;;;;;27.30;69.20;;;;;;6358905;28;19924;-81
2023/06/20 10:47:30;;;;;;;;;;;27.30;69.50;;;;;;6370068;28;19923;-82
2023/06/20 10:50:33;;;;;;;;;;;27.30;66.40;;;;;;6370041;28;19923;-81
2023/06/20 10:53:35;;;;;;;;;;;27.40;66.90;;;;;;6369677;28;19924;-82
2023/06/20 10:56:37;;;;;;;;;;;27.50;66.10;;;;;;6355335;28;19924;-81
2023/06/20 10:59:39;;;;;;;;;;;27.40;65.60;;;;;;6344386;28;20338;-80
2023/06/20 11:02:40;;;;;;;;;;;27.50;65.80;;;;;;6346366;28;19924;-80
2023/06/20 11:05:48;;;;;;;;;;;27.60;65.10;;;;;;6353812;28;19924;-80
2023/06/20 11:08:50;;;;;;;;;;;27.70;66.00;;;;;;6351772;28;19923;-81
2023/06/20 11:11:52;;;;;;;;;;;27.70;67.00;;;;;;6369391;28;19927;-81
2023/06/20 11:14:54;;;;;;;;;;;27.80;68.60;;;;;;6369359;28;20023;-81
2023/06/20 11:17:56;;;;;;;;;;;27.80;68.10;;;;;;6364033;28;20403;-81
2023/06/20 11:20:59;;;;;;;;;;;27.80;68.10;;;;;;6355221;28;19927;-81
2023/06/20 11:24:02;;;;;;;;;;;27.80;68.80;;;;;;6368404;28;19983;-81
2023/06/20 11:27:13;;;;;;;;;;;27.80;69.30;;;;;;6341359;28;19929;-80
2023/06/20 11:30:15;;;;;;;;;;;27.90;68.80;;;;;;6343052;28;19924;-81
2023/06/20 11:33:18;;;;;;;;;;;28.00;68.30;;;;;;6342990;28;19924;-79
2023/06/20 11:36:22;;;;;;;;;;;28.10;69.10;;;;;;6342894;28;19992;-80
2023/06/20 11:39:25;;;;;;;;;;;28.30;71.10;;;;;;6356533;28;19924;-80
2023/06/20 11:42:33;;;;;;;;;;;28.40;69.20;;;;;;6366542;28;19923;-80
2023/06/20 11:45:35;;;;;;;;;;;28.30;68.30;;;;;;6342375;28;19928;-80
2023/06/20 11:48:36;;;;;;;;;;;28.40;69.00;;;;;;6351425;28;19931;-80
2023/06/20 11:51:40;;;;;;;;;;;28.40;68.10;;;;;;6334743;28;20277;-80
2023/06/20 11:54:49;;;;;;;;;;;28.60;69.10;;;;;;6336541;28;19946;-80
2023/06/20 11:57:50;;;;;;;;;;;28.60;67.50;;;;;;6330613;28;19930;-79
2023/06/20 12:01:02;;;;;;;;;;;28.70;65.60;;;;;;6350748;28;19924;-79
2023/06/20 12:04:05;;;;;;;;;;;28.70;66.10;;;;;;6350645;28;19988;-81
2023/06/20 12:07:08;;;;;;;;;;;28.60;65.80;;;;;;6345550;28;19931;-73
2023/06/20 12:10:12;;;;;;;;;;;28.60;67.10;;;;;;6325690;28;19928;-72
2023/06/20 12:13:14;;;;;;;;;;;28.70;66.90;;;;;;6325676;28;19924;-72
2023/06/20 12:16:16;;;;;;;;;;;28.60;66.90;;;;;;6325488;28;19931;-75
2023/06/20 12:19:19;;;;;;;;;;;28.80;67.20;;;;;;6326664;28;19931;-82
2023/06/20 12:22:22;;;;;;;;;;;28.80;66.20;;;;;;6328704;28;19973;-81
2023/06/20 12:25:24;;;;;;;;;;;28.90;65.50;;;;;;6325305;28;19931;-81
2023/06/20 12:28:25;;;;;;;;;;;29.00;65.30;;;;;;6341522;28;19923;-83
2023/06/20 12:31:27;;;;;;;;;;;29.00;65.20;;;;;;6350656;28;19943;-81
2023/06/20 12:34:29;;;;;;;;;;;29.00;64.30;;;;;;6350468;28;20269;-85
2023/06/20 12:37:32;;;;;;;;;;;29.10;65.40;;;;;;6351380;28;19931;-82
2023/06/20 12:40:33;;;;;;;;;;;29.30;64.90;;;;;;6335185;28;19931;-84
2023/06/20 12:43:35;;;;;;;;;;;29.40;64.30;;;;;;6323674;28;19931;-81
2023/06/20 12:46:37;;;;;;;;;;;29.40;63.00;;;;;;6325141;28;19931;-80
2023/06/20 12:49:39;;;;;;;;;;;29.50;63.10;;;;;;6325934;28;19931;-80
2023/06/20 12:52:42;;;;;;;;;;;29.40;62.50;;;;;;6324383;28;19924;-81
2023/06/20 12:55:44;;;;;;;;;;;29.50;62.30;;;;;;6323934;28;20286;-81
2023/06/20 12:58:46;;;;;;;;;;;29.70;61.60;;;;;;6325359;28;19932;-82
2023/06/20 13:01:47;;;;;;;;;;;29.80;62.30;;;;;;6324561;28;19935;-81
2023/06/20 13:04:51;;;;;;;;;;;29.80;62.20;;;;;;6324492;28;19924;-82
2023/06/20 13:07:54;;;;;;;;;;;29.80;60.80;;;;;;6337718;28;20345;-81
2023/06/20 13:10:57;;;;;;;;;;;29.90;61.40;;;;;;6349566;28;19930;-81
2023/06/20 13:13:59;;;;;;;;;;;30.00;61.60;;;;;;6349397;28;19924;-82
2023/06/20 13:17:01;;;;;;;;;;;30.10;60.60;;;;;;6349414;28;19931;-82
2023/06/20 13:20:06;;;;;;;;;;;30.10;60.50;;;;;;6349529;28;19931;-81
2023/06/20 13:23:09;;;;;;;;;;;30.20;61.40;;;;;;6331690;28;20418;-82
2023/06/20 13:26:11;;;;;;;;;;;30.30;60.40;;;;;;6323968;28;19924;-80
2023/06/20 13:29:13;;;;;;;;;;;30.30;60.30;;;;;;6324379;28;19931;-80
2023/06/20 13:32:14;;;;;;;;;;;30.30;59.80;;;;;;6323721;28;19960;-80
2023/06/20 13:35:17;;;;;;;;;;;30.40;60.20;;;;;;6323578;28;19931;-80
2023/06/20 13:38:20;;;;;;;;;;;30.40;59.70;;;;;;6324493;28;20289;-81
2023/06/20 13:41:22;;;;;;;;;;;30.60;60.40;;;;;;6347874;28;19924;-80
2023/06/20 13:44:24;;;;;;;;;;;30.90;59.30;;;;;;6334023;28;19924;-81
2023/06/20 13:47:26;;;;;;;;;;;31.20;59.50;;;;;;6324198;28;19932;-80
2023/06/20 13:50:27;;;;;;;;;;;31.20;59.70;;;;;;6344930;28;19924;-82
2023/06/20 13:53:30;;;;;;;;;;;31.30;59.70;;;;;;6348200;28;19931;-82
2023/06/20 13:56:32;;;;;;;;;;;31.60;59.60;;;;;;6337900;28;19924;-81
2023/06/20 13:59:34;;;;;;;;;;;31.30;58.20;;;;;;6324555;28;19931;-81
2023/06/20 14:02:35;;;;;;;;;;;31.40;60.00;;;;;;6343853;28;19931;-82
2023/06/20 14:05:37;;;;;;;;;;;31.60;58.50;;;;;;6332738;28;19931;-81
2023/06/20 14:08:42;;;;;;;;;;;31.70;58.80;;;;;;6324293;28;20441;-81
2023/06/20 14:11:44;;;;;;;;;;;31.80;58.90;;;;;;6319987;28;19939;-83
2023/06/20 14:14:46;;;;;;;;;;;31.80;58.20;;;;;;6322305;28;20023;-82
2023/06/20 14:17:49;;;;;;;;;;;31.80;57.90;;;;;;6331898;28;19928;-82
2023/06/20 14:20:51;;;;;;;;;;;31.90;57.40;;;;;;6323454;28;19939;-81
2023/06/20 14:23:54;;;;;;;;;;;31.80;57.00;;;;;;6327773;28;19935;-80
2023/06/20 14:26:55;;;;;;;;;;;31.90;57.10;;;;;;6321480;28;19928;-82
2023/06/20 14:29:59;;;;;;;;;;;31.80;57.10;;;;;;6325766;28;19939;-81
2023/06/20 14:33:01;;;;;;;;;;;31.90;57.10;;;;;;6327317;28;19928;-85
2023/06/20 14:36:03;;;;;;;;;;;32.00;57.10;;;;;;6322661;28;19965;-85
2023/06/20 14:39:06;;;;;;;;;;;32.00;57.00;;;;;;6329195;28;19932;-82
2023/06/20 14:42:08;;;;;;;;;;;32.20;56.90;;;;;;6325966;28;19928;-83
2023/06/20 14:45:10;;;;;;;;;;;32.20;57.00;;;;;;6329762;28;19924;-83
2023/06/20 14:48:12;;;;;;;;;;;32.20;56.70;;;;;;6319810;28;19931;-83
2023/06/20 14:51:13;;;;;;;;;;;32.20;56.90;;;;;;6342924;28;20297;-86
2023/06/20 14:54:16;;;;;;;;;;;32.30;56.20;;;;;;6335729;28;20378;-86
2023/06/20 14:57:18;;;;;;;;;;;32.20;56.80;;;;;;6321694;28;20358;-86
2023/06/20 15:00:20;;;;;;;;;;;32.20;57.20;;;;;;6329246;28;19928;-87
2023/06/20 15:03:22;;;;;;;;;;;32.30;56.50;;;;;;6320531;28;20011;-81
2023/06/20 15:06:24;;;;;;;;;;;32.60;56.50;;;;;;6322027;28;19996;-82
2023/06/20 15:09:27;;;;;;;;;;;32.80;57.20;;;;;;6324736;28;19932;-83
2023/06/20 15:12:28;;;;;;;;;;;32.90;57.00;;;;;;6320368;28;19928;-83
2023/06/20 15:15:30;;;;;;;;;;;32.60;56.10;;;;;;6325413;28;19928;-82
2023/06/20 15:18:32;;;;;;;;;;;32.60;56.50;;;;;;6330159;28;19928;-82
2023/06/20 15:21:33;;;;;;;;;;;32.80;56.90;;;;;;6327641;28;20381;-82
2023/06/20 15:24:37;;;;;;;;;;;32.70;55.80;;;;;;6324702;28;20288;-80
2023/06/20 15:27:39;;;;;;;;;;;32.80;56.70;;;;;;6348587;28;19932;-81
2023/06/20 15:30:41;;;;;;;;;;;33.00;56.50;;;;;;6347096;28;19943;-81
2023/06/20 15:33:43;;;;;;;;;;;33.00;56.20;;;;;;6341085;28;19935;-81
2023/06/20 15:36:44;;;;;;;;;;;33.00;55.50;;;;;;6329687;28;20291;-80
2023/06/20 15:39:47;;;;;;;;;;;33.10;55.30;;;;;;6334352;28;20294;-81
2023/06/20 15:42:50;;;;;;;;;;;33.10;54.90;;;;;;6320699;28;20298;-81
2023/06/20 15:45:52;;;;;;;;;;;33.20;55.30;;;;;;6322529;28;19935;-82
2023/06/20 15:48:58;;;;;;;;;;;33.30;54.60;;;;;;6322553;28;19928;-81
2023/06/20 15:51:59;;;;;;;;;;;33.30;54.60;;;;;;6343838;28;19950;-82
2023/06/20 15:55:03;;;;;;;;;;;33.20;54.90;;;;;;6352682;27;20322;-81
2023/06/20 15:58:04;;;;;;;;;;;33.30;54.70;;;;;;6373377;27;19934;-81
2023/06/20 16:01:06;;;;;;;;;;;33.30;54.60;;;;;;6341225;27;19939;-81
2023/06/20 16:04:08;;;;;;;;;;;33.30;54.60;;;;;;6322178;28;19924;-81
2023/06/20 16:07:09;;;;;;;;;;;33.30;54.40;;;;;;6327445;28;19923;-81
2023/06/20 16:10:12;;;;;;;;;;;33.40;54.30;;;;;;6347090;28;19927;-81
2023/06/20 16:13:14;;;;;;;;;;;33.60;54.50;;;;;;6345654;28;19927;-81
2023/06/20 16:16:16;;;;;;;;;;;33.60;54.20;;;;;;6343181;28;19934;-81
2023/06/20 16:19:17;;;;;;;;;;;33.80;55.00;;;;;;6347350;28;19935;-80
2023/06/20 16:22:19;;;;;;;;;;;33.80;53.40;;;;;;6344568;28;20408;-80
2023/06/20 16:25:22;;;;;;;;;;;33.80;54.40;;;;;;6336135;28;19932;-80
2023/06/20 16:28:24;;;;;;;;;;;33.70;54.20;;;;;;6322197;28;19928;-80
2023/06/20 16:31:26;;;;;;;;;;;33.60;54.80;;;;;;6327691;28;19927;-81
2023/06/20 16:34:28;;;;;;;;;;;33.30;54.20;;;;;;6326986;28;20437;-82
2023/06/20 16:37:29;;;;;;;;;;;33.10;54.50;;;;;;6323327;28;20254;-82
2023/06/20 16:40:32;;;;;;;;;;;33.00;55.00;;;;;;6331222;28;20392;-82
2023/06/20 16:43:34;;;;;;;;;;;32.80;55.70;;;;;;6321981;28;19934;-82
2023/06/20 16:46:36;;;;;;;;;;;32.70;55.90;;;;;;6330041;28;19932;-82
2023/06/20 16:49:37;;;;;;;;;;;32.50;55.20;;;;;;6344473;27;20280;-81
2023/06/20 16:52:39;;;;;;;;;;;32.40;56.00;;;;;;6362724;27;20313;-80
2023/06/20 16:55:42;;;;;;;;;;;32.40;56.40;;;;;;6345721;27;19934;-82
2023/06/20 16:58:44;;;;;;;;;;;32.40;55.70;;;;;;6337659;28;19923;-82
2023/06/20 17:01:46;;;;;;;;;;;32.30;55.50;;;;;;6327289;27;19928;-78
2023/06/20 17:04:48;;;;;;;;;;;32.30;56.30;;;;;;6342261;28;19935;-81
2023/06/20 17:07:50;;;;;;;;;;;32.30;56.80;;;;;;6346210;28;19928;-72
2023/06/20 17:10:53;;;;;;;;;;;32.00;57.50;;;;;;6344648;28;19934;-77
2023/06/20 17:13:55;;;;;;;;;;;31.90;59.50;;;;;;6330801;28;19925;-72
2023/06/20 17:16:57;;;;;;;;;;;31.60;60.40;;;;;;6327319;28;20576;-79
2023/06/20 17:19:58;;;;;;;;;;;31.50;62.40;;;;;;6346330;28;19934;-78
2023/06/20 17:23:00;;;;;;;;;;;31.60;62.80;;;;;;6334730;28;19928;-79
2023/06/20 17:26:03;;;;;;;;;;;31.50;62.40;;;;;;6338603;28;19927;-79
2023/06/20 17:29:05;;;;;;;;;;;31.50;61.40;;;;;;6345798;28;19928;-78
2023/06/20 17:32:07;;;;;;;;;;;31.40;61.40;;;;;;6339178;28;19938;-78
2023/06/20 17:35:09;;;;;;;;;;;31.30;65.10;;;;;;6320602;28;19935;-78
2023/06/20 17:38:11;;;;;;;;;;;31.00;71.00;;;;;;6320187;28;19932;-79
2023/06/20 17:41:14;;;;;;;;;;;30.50;77.30;;;;;;6318011;28;20404;-78
2023/06/20 17:44:16;;;;;;;;;;;30.50;70.00;;;;;;6330836;28;19924;-79
2023/06/20 17:47:17;;;;;;;;;;;30.10;73.30;;;;;;6323627;28;19928;-78